Time;durP1;ratioP1;P1;durP2;ratioP2;P2;SDS_P1;SDS_P2;PMS_P1;PMS_P2;Temp;Humidity;BMP_temperature;BMP_pressure;BME280_temperature;BME280_humidity;BME280_pressure;Samples;Min_cycle;Max_cycle;Signal;HPM_P1;HPM_P2
2023/03/03 00:02:24;;;;;;;10.80;4.70;;;;;;;-2.55;100.00;101137.20;103781;1305;1003955;-75
2023/03/03 00:04:54;;;;;;;10.70;4.10;;;;;;;-2.58;100.00;101139.65;104528;1305;25297;-79
2023/03/03 00:07:22;;;;;;;9.20;4.70;;;;;;;-2.61;100.00;101139.91;104456;1305;25491;-77
2023/03/03 00:09:51;;;;;;;16.90;6.10;;;;;;;-2.65;100.00;101134.94;104489;1305;23026;-75
2023/03/03 00:12:28;;;;;;;10.20;4.50;;;;;;;-2.68;100.00;101135.23;104403;1305;25460;-76
2023/03/03 00:14:57;;;;;;;13.50;5.70;;;;;;;-2.69;100.00;101142.02;103819;1305;1003132;-75
2023/03/03 00:17:28;;;;;;;16.00;5.90;;;;;;;-2.70;100.00;101134.45;104483;1305;25463;-75
2023/03/03 00:19:58;;;;;;;15.80;5.80;;;;;;;-2.73;100.00;101133.84;104474;1305;25463;-75
2023/03/03 00:22:36;;;;;;;12.30;5.30;;;;;;;-2.74;100.00;101132.11;104470;1305;25472;-75
2023/03/03 00:25:29;;;;;;;15.20;5.90;;;;;;;-2.74;100.00;101136.02;104593;1305;22576;-75
2023/03/03 00:28:14;;;;;;;12.60;5.20;;;;;;;-2.75;100.00;101144.50;104490;1305;25329;-75
2023/03/03 00:30:43;;;;;;;11.20;4.40;;;;;;;-2.75;100.00;101137.27;104424;1305;22559;-76
2023/03/03 00:33:19;;;;;;;13.20;5.20;;;;;;;-2.72;100.00;101132.04;103779;1305;1003122;-75
2023/03/03 00:35:51;;;;;;;11.30;5.10;;;;;;;-2.65;100.00;101135.13;104511;1305;25463;-74
2023/03/03 00:38:21;;;;;;;8.60;4.20;;;;;;;-2.60;100.00;101128.05;103602;1305;1003142;-74
2023/03/03 00:40:50;;;;;;;6.80;3.80;;;;;;;-2.57;100.00;101125.81;104487;1305;23901;-75
2023/03/03 00:43:21;;;;;;;9.20;4.40;;;;;;;-2.55;100.00;101124.50;103769;1305;1002965;-73
2023/03/03 00:45:57;;;;;;;14.00;5.10;;;;;;;-2.51;100.00;101123.63;104499;1305;24260;-75
2023/03/03 00:48:27;;;;;;;13.70;4.90;;;;;;;-2.47;100.00;101123.66;104481;1305;22678;-76
2023/03/03 00:50:59;;;;;;;11.10;4.30;;;;;;;-2.42;100.00;101122.59;104467;1305;24310;-76
2023/03/03 00:53:29;;;;;;;9.40;4.30;;;;;;;-2.39;100.00;101129.17;103768;1305;1003048;-76
2023/03/03 00:55:57;;;;;;;14.90;4.80;;;;;;;-2.37;100.00;101122.90;104490;1305;22561;-76
2023/03/03 00:58:28;;;;;;;8.10;4.10;;;;;;;-2.35;100.00;101126.18;104685;1304;25411;-76
2023/03/03 01:00:57;;;;;;;11.90;5.10;;;;;;;-2.34;100.00;101122.09;104732;1304;22549;-76
2023/03/03 01:03:42;;;;;;;13.80;5.00;;;;;;;-2.33;100.00;101131.41;104733;1304;25334;-75
2023/03/03 01:06:11;;;;;;;10.90;5.00;;;;;;;-2.32;100.00;101124.98;104474;1304;25258;-74
2023/03/03 01:14:11;;;;;;;10.40;4.40;;;;;;;-2.31;100.00;101174.05;104120;1309;22588;-76
2023/03/03 01:16:40;;;;;;;6.90;3.50;;;;;;;-2.32;100.00;101144.24;104059;1309;25456;-75
2023/03/03 01:19:09;;;;;;;12.00;4.70;;;;;;;-2.34;100.00;101145.58;104662;1295;26669;-75
2023/03/03 01:21:38;;;;;;;11.50;4.70;;;;;;;-2.37;100.00;101146.39;104763;1304;25451;-76
2023/03/03 01:24:09;;;;;;;10.00;5.00;;;;;;;-2.40;100.00;101146.69;104762;1304;25414;-76
2023/03/03 01:26:39;;;;;;;15.10;5.00;;;;;;;-2.43;100.00;101153.69;104748;1304;25410;-75
2023/03/03 01:29:09;;;;;;;11.00;4.90;;;;;;;-2.46;100.00;101151.38;104454;1304;25383;-75
2023/03/03 01:31:39;;;;;;;12.10;4.20;;;;;;;-2.49;100.00;101150.73;104730;1304;25401;-76
2023/03/03 01:34:07;;;;;;;8.10;4.20;;;;;;;-2.50;100.00;101148.48;104768;1304;25455;-76
2023/03/03 01:36:36;;;;;;;13.10;5.10;;;;;;;-2.49;100.00;101147.75;104021;1304;1003403;-76
2023/03/03 01:39:04;;;;;;;13.20;4.90;;;;;;;-2.46;100.00;101140.04;104659;1304;22576;-76
2023/03/03 01:41:33;;;;;;;10.30;4.40;;;;;;;-2.42;100.00;101142.02;104628;1304;25417;-76
2023/03/03 01:44:03;;;;;;;9.40;4.10;;;;;;;-2.39;100.00;101138.00;103721;1304;1003822;-77
2023/03/03 01:47:11;;;;;;;13.80;5.60;;;;;;;-2.37;100.00;101139.52;104373;1304;26543;-76
2023/03/03 01:49:57;;;;;;;10.90;4.50;;;;;;;-2.35;100.00;101147.04;104549;1304;25388;-74
2023/03/03 01:52:38;;;;;;;13.60;4.30;;;;;;;-2.35;100.00;101144.04;104453;1304;22801;-76
2023/03/03 01:55:17;;;;;;;10.90;4.60;;;;;;;-2.36;100.00;101138.23;104675;1304;22553;-77
2023/03/03 01:58:01;;;;;;;10.10;4.30;;;;;;;-2.39;100.00;101138.70;104771;1304;25487;-77
2023/03/03 02:00:31;;;;;;;13.70;4.60;;;;;;;-2.41;100.00;101138.45;104726;1304;25380;-79
2023/03/03 02:02:59;;;;;;;10.40;4.00;;;;;;;-2.43;100.00;101132.66;104486;1304;25411;-78
2023/03/03 02:05:28;;;;;;;9.70;5.00;;;;;;;-2.44;100.00;101130.09;104841;1304;25332;-78
2023/03/03 02:07:56;;;;;;;11.10;4.60;;;;;;;-2.45;100.00;101131.55;104493;1304;23899;-77
2023/03/03 02:10:28;;;;;;;8.50;4.10;;;;;;;-2.46;100.00;101129.11;104557;1304;25332;-76
2023/03/03 02:12:57;;;;;;;14.20;4.60;;;;;;;-2.47;100.00;101129.30;103748;1304;1003532;-76
2023/03/03 02:15:36;;;;;;;9.20;4.20;;;;;;;-2.48;100.00;101120.16;104053;1304;1003557;-76
2023/03/03 02:18:12;;;;;;;11.30;4.60;;;;;;;-2.52;100.00;101122.77;103780;1304;1002973;-76
2023/03/03 02:20:44;;;;;;;7.90;4.40;;;;;;;-2.53;100.00;101121.61;104747;1304;25385;-79
2023/03/03 02:23:35;;;;;;;9.10;4.20;;;;;;;-2.54;100.00;101122.52;104748;1304;25526;-76
2023/03/03 02:26:12;;;;;;;12.70;4.60;;;;;;;-2.57;100.00;101127.95;104681;1304;25403;-75
2023/03/03 02:28:42;;;;;;;8.50;4.90;;;;;;;-2.59;100.00;101118.67;104621;1304;26535;-75
2023/03/03 02:31:13;;;;;;;12.10;4.90;;;;;;;-2.61;100.00;101119.45;104764;1304;22550;-75
2023/03/03 02:33:49;;;;;;;7.90;4.60;;;;;;;-2.62;100.00;101124.08;104446;1304;25348;-76
2023/03/03 02:36:23;;;;;;;14.20;5.50;;;;;;;-2.63;100.00;101125.70;104712;1304;22546;-76
2023/03/03 02:39:04;;;;;;;10.20;5.00;;;;;;;-2.63;100.00;101124.64;104469;1304;25462;-75
2023/03/03 02:41:32;;;;;;;14.20;5.30;;;;;;;-2.63;100.00;101122.90;104742;1280;25523;-76
2023/03/03 02:44:12;;;;;;;15.90;5.90;;;;;;;-2.64;100.00;101118.70;104757;1304;22597;-75
2023/03/03 02:46:45;;;;;;;15.10;5.20;;;;;;;-2.65;100.00;101123.85;104003;1304;1002792;-75
2023/03/03 02:49:15;;;;;;;11.20;5.20;;;;;;;-2.65;100.00;101118.23;104773;1304;22563;-76
2023/03/03 02:51:44;;;;;;;13.30;4.90;;;;;;;-2.65;100.00;101117.85;104463;1304;25441;-75
2023/03/03 02:54:14;;;;;;;14.70;5.50;;;;;;;-2.66;100.00;101120.70;104724;1304;26688;-75
2023/03/03 02:56:43;;;;;;;11.40;5.20;;;;;;;-2.67;100.00;101115.98;104474;1304;25333;-75
2023/03/03 02:59:12;;;;;;;11.50;4.80;;;;;;;-2.67;100.00;101120.91;103759;1305;1015780;-76
2023/03/03 03:01:46;;;;;;;12.80;5.40;;;;;;;-2.66;100.00;101117.88;104492;1305;25284;-76
2023/03/03 03:04:18;;;;;;;12.80;5.40;;;;;;;-2.64;100.00;101117.29;104490;1305;26745;-79
2023/03/03 03:06:50;;;;;;;;;;;;;;;-2.62;100.00;101111.02;104572;1304;25433;-77
2023/03/03 03:09:19;;;;;;;10.10;4.60;;;;;;;-2.61;100.00;101108.34;104497;1305;25466;-75
2023/03/03 03:11:49;;;;;;;11.00;4.30;;;;;;;-2.60;100.00;101110.21;104508;1305;22618;-75
2023/03/03 03:14:24;;;;;;;12.10;4.90;;;;;;;-2.59;100.00;101101.89;103638;1305;1002928;-75
2023/03/03 03:16:54;;;;;;;11.00;4.50;;;;;;;-2.58;100.00;101104.16;103790;1305;1003628;-76
2023/03/03 03:19:23;;;;;;;10.10;4.70;;;;;;;-2.59;100.00;101103.80;104493;1305;25611;-76
2023/03/03 03:21:51;;;;;;;12.10;4.90;;;;;;;-2.60;100.00;101101.41;104503;1305;25325;-76
2023/03/03 03:24:20;;;;;;;12.70;4.90;;;;;;;-2.61;100.00;101098.64;104554;1305;25360;-75
2023/03/03 03:26:55;;;;;;;8.20;4.40;;;;;;;-2.63;100.00;101099.77;104506;1305;22585;-76
2023/03/03 03:29:24;;;;;;;12.20;4.60;;;;;;;-2.65;100.00;101097.75;104525;1305;25287;-77
2023/03/03 03:31:53;;;;;;;7.90;4.20;;;;;;;-2.67;100.00;101094.60;104453;1305;22559;-76
2023/03/03 03:34:21;;;;;;;10.20;4.50;;;;;;;-2.68;100.00;101090.23;104534;1305;25281;-74
2023/03/03 03:36:55;;;;;;;12.00;5.00;;;;;;;-2.69;100.00;101086.73;103764;1305;1003239;-75
2023/03/03 03:39:44;;;;;;;13.20;4.80;;;;;;;-2.70;100.00;101090.68;104466;1305;23178;-77
2023/03/03 03:42:13;;;;;;;15.60;6.00;;;;;;;-2.72;100.00;101090.21;104502;1305;28221;-75
2023/03/03 03:44:43;;;;;;;15.40;6.30;;;;;;;-2.73;100.00;101087.79;104492;1305;25423;-77
2023/03/03 03:47:16;;;;;;;14.20;5.20;;;;;;;-2.74;100.00;101086.91;104506;1305;25479;-76
2023/03/03 03:49:45;;;;;;;10.80;4.90;;;;;;;-2.75;100.00;101085.04;104525;1305;22666;-77
2023/03/03 03:52:14;;;;;;;11.20;4.70;;;;;;;-2.78;100.00;101078.10;104516;1305;25338;-76
2023/03/03 03:54:43;;;;;;;14.70;5.40;;;;;;;-2.82;100.00;101079.66;104568;1304;23802;-77
2023/03/03 03:57:13;;;;;;;12.20;4.90;;;;;;;-2.86;100.00;101077.16;104436;1305;25542;-76
2023/03/03 04:00:01;;;;;;;12.80;5.50;;;;;;;-2.90;100.00;101077.48;104504;1304;25080;-76
2023/03/03 04:02:42;;;;;;;7.90;4.00;;;;;;;-2.94;100.00;101079.07;103790;1304;1003405;-76
2023/03/03 04:05:13;;;;;;;12.90;4.60;;;;;;;-2.98;100.00;101076.95;104456;1304;22589;-76
2023/03/03 04:07:41;;;;;;;7.80;4.40;;;;;;;-3.02;100.00;101081.16;103796;1304;1003326;-75
2023/03/03 04:10:11;;;;;;;11.30;4.70;;;;;;;-3.05;100.00;101086.20;104488;1305;23753;-78
2023/03/03 04:12:40;;;;;;;12.30;4.70;;;;;;;-3.08;100.00;101089.11;103731;1305;1002510;-77
2023/03/03 04:15:15;;;;;;;17.00;5.50;;;;;;;-3.10;100.00;101088.83;104534;1305;25509;-77
2023/03/03 04:17:46;;;;;;;12.50;4.80;;;;;;;-3.12;100.00;101089.63;104491;1305;26783;-77
2023/03/03 04:20:15;;;;;;;11.80;4.70;;;;;;;-3.14;100.00;101088.13;104511;1305;22555;-75
2023/03/03 04:22:46;;;;;;;12.90;5.50;;;;;;;-3.18;100.00;101090.20;104431;1305;25428;-76
2023/03/03 04:25:16;;;;;;;11.70;4.90;;;;;;;-3.19;100.00;101091.34;104489;1305;24060;-76
2023/03/03 04:27:49;;;;;;;15.50;6.20;;;;;;;-3.21;100.00;101091.91;103734;1305;1003279;-78
2023/03/03 04:30:21;;;;;;;12.00;5.70;;;;;;;-3.21;100.00;101093.85;104486;1305;25401;-78
2023/03/03 04:32:52;;;;;;;15.80;5.80;;;;;;;-3.22;100.00;101094.79;103824;1305;1003714;-79
2023/03/03 04:35:22;;;;;;;14.20;5.60;;;;;;;-3.23;100.00;101094.46;103832;1305;1002986;-78
2023/03/03 04:37:50;;;;;;;16.20;6.00;;;;;;;-3.26;100.00;101095.09;104500;1305;22607;-78
2023/03/03 04:40:20;;;;;;;16.80;5.70;;;;;;;-3.28;100.00;101091.98;104399;1305;25284;-78
2023/03/03 04:42:49;;;;;;;14.40;6.00;;;;;;;-3.25;100.00;101090.48;103830;1305;1003056;-76
2023/03/03 04:45:22;;;;;;;13.00;5.60;;;;;;;-3.22;100.00;101087.38;103851;1304;1004006;-76
2023/03/03 04:47:51;;;;;;;18.90;6.60;;;;;;;-3.18;100.00;101090.74;103778;1305;1003097;-77
2023/03/03 04:50:23;;;;;;;14.20;5.80;;;;;;;-3.14;100.00;101092.19;104492;1305;25342;-76
2023/03/03 04:52:54;;;;;;;12.40;5.20;;;;;;;-3.11;100.00;101094.86;103822;1305;1003802;-78
2023/03/03 04:55:22;;;;;;;16.50;5.90;;;;;;;-3.09;100.00;101095.19;103747;1305;1003782;-78
2023/03/03 04:57:54;;;;;;;13.70;5.00;;;;;;;-3.06;100.00;101094.16;104500;1305;25453;-76
2023/03/03 05:00:23;;;;;;;13.40;5.60;;;;;;;-3.03;100.00;101095.66;104743;1304;22549;-77
2023/03/03 05:02:51;;;;;;;12.70;5.70;;;;;;;-2.98;100.00;101089.48;104763;1304;22578;-78
2023/03/03 05:05:20;;;;;;;13.30;4.90;;;;;;;-2.92;100.00;101091.32;104043;1304;1003695;-76
2023/03/03 05:07:50;;;;;;;15.90;5.50;;;;;;;-2.85;100.00;101093.71;104757;1304;25477;-77
2023/03/03 05:10:19;;;;;;;14.90;6.20;;;;;;;-2.75;100.00;101095.79;104773;1304;24480;-76
2023/03/03 05:12:48;;;;;;;17.60;6.70;;;;;;;-2.64;100.00;101098.73;104691;1304;22549;-76
2023/03/03 05:15:18;;;;;;;13.10;6.00;;;;;;;-2.53;100.00;101098.10;104736;1304;25436;-77
2023/03/03 05:17:47;;;;;;;15.90;6.50;;;;;;;-2.43;100.00;101098.95;104570;1304;25348;-78
2023/03/03 05:20:19;;;;;;;16.30;6.90;;;;;;;-2.35;100.00;101095.63;104641;1304;26762;-76
2023/03/03 05:22:47;;;;;;;16.80;6.70;;;;;;;-2.26;100.00;101096.68;104726;1304;22549;-75
2023/03/03 05:25:16;;;;;;;16.60;7.30;;;;;;;-2.16;100.00;101096.78;104765;1298;25639;-76
2023/03/03 05:27:45;;;;;;;16.60;6.80;;;;;;;-2.05;100.00;101097.05;104711;1304;25479;-76
2023/03/03 05:30:13;;;;;;;17.30;7.20;;;;;;;-1.92;100.00;101097.73;104765;1304;23905;-76
2023/03/03 05:32:45;;;;;;;15.40;6.30;;;;;;;-1.77;100.00;101097.45;104709;1304;25357;-76
2023/03/03 05:35:14;;;;;;;15.00;6.10;;;;;;;-1.64;100.00;101091.79;104683;1304;25395;-75
2023/03/03 05:37:46;;;;;;;13.10;5.70;;;;;;;-1.53;100.00;101096.95;104034;1304;1003741;-77
2023/03/03 05:40:15;;;;;;;17.90;5.90;;;;;;;-1.45;100.00;101089.88;104030;1304;1003173;-74
2023/03/03 05:42:44;;;;;;;15.90;6.90;;;;;;;-1.38;100.00;101088.11;104572;1304;22576;-75
2023/03/03 05:45:13;;;;;;;12.10;5.90;;;;;;;-1.32;100.00;101089.63;104028;1304;1003536;-75
2023/03/03 05:47:41;;;;;;;15.70;6.40;;;;;;;-1.26;100.00;101087.42;104699;1304;26544;-76
2023/03/03 05:50:11;;;;;;;18.50;6.80;;;;;;;-1.22;100.00;101087.02;104716;1304;22565;-76
2023/03/03 05:52:39;;;;;;;15.70;7.10;;;;;;;-1.17;100.00;101083.47;104684;1304;22549;-78
2023/03/03 05:55:10;;;;;;;18.30;7.10;;;;;;;-1.16;100.00;101083.77;104775;1304;26756;-75
2023/03/03 05:57:41;;;;;;;15.10;6.40;;;;;;;-1.13;100.00;101079.38;104614;1299;25341;-69
2023/03/03 06:00:10;;;;;;;18.40;7.50;;;;;;;-1.07;100.00;101080.89;104506;1305;25526;-71
2023/03/03 06:02:40;;;;;;;17.90;7.20;;;;;;;-1.04;100.00;101078.80;104826;1305;22557;-72
2023/03/03 06:05:10;;;;;;;16.90;7.00;;;;;;;-0.99;100.00;101078.38;104586;1296;22649;-69
2023/03/03 06:07:41;;;;;;;17.40;6.80;;;;;;;-0.91;100.00;101078.22;104534;1298;22555;-71
2023/03/03 06:10:10;;;;;;;18.60;8.30;;;;;;;-0.86;100.00;101077.43;104679;1301;25283;-72
2023/03/03 06:12:47;;;;;;;17.00;7.10;;;;;;;-0.80;100.00;101076.42;104689;1299;25527;-70
2023/03/03 06:15:16;;;;;;;22.00;8.60;;;;;;;-0.73;100.00;101075.95;103996;1304;1003175;-70
2023/03/03 06:17:48;;;;;;;19.80;8.70;;;;;;;-0.66;100.00;101072.24;104626;1298;25357;-69
2023/03/03 06:20:17;;;;;;;20.00;9.00;;;;;;;-0.59;100.00;101073.67;104725;1304;24322;-69
2023/03/03 06:22:45;;;;;;;24.90;10.20;;;;;;;-0.52;100.00;101076.89;103992;1304;1003585;-69
2023/03/03 06:25:14;;;;;;;22.20;9.00;;;;;;;-0.46;100.00;101077.48;104712;1304;22662;-69
2023/03/03 06:27:45;;;;;;;22.00;9.20;;;;;;;-0.43;100.00;101073.77;104726;1296;26557;-69
2023/03/03 06:30:17;;;;;;;;;;;;;;;-0.42;100.00;101068.58;104543;1302;22536;-71
2023/03/03 06:32:46;;;;;;;23.30;9.90;;;;;;;-0.39;100.00;101073.59;104779;1296;25392;-71
2023/03/03 06:35:17;;;;;;;24.60;11.70;;;;;;;-0.39;100.00;101069.51;104783;1296;25376;-69
2023/03/03 06:37:45;;;;;;;23.00;10.70;;;;;;;-0.38;100.00;101064.48;103997;1296;1003663;-71
2023/03/03 06:40:14;;;;;;;20.40;9.70;;;;;;;-0.32;100.00;101068.13;104808;1301;22575;-70
2023/03/03 06:42:44;;;;;;;21.50;9.60;;;;;;;-0.27;100.00;101068.73;104756;1304;25342;-72
2023/03/03 06:45:13;;;;;;;23.60;10.70;;;;;;;-0.22;100.00;101071.30;104677;1298;22590;-69
2023/03/03 06:47:42;;;;;;;23.70;9.60;;;;;;;-0.16;100.00;101070.16;104665;1304;24178;-69
2023/03/03 06:50:11;;;;;;;21.40;9.10;;;;;;;-0.13;100.00;101071.42;104601;1298;24790;-71
2023/03/03 06:52:40;;;;;;;21.50;8.20;;;;;;;-0.08;100.00;101070.95;104599;1296;26540;-68
2023/03/03 06:55:14;;;;;;;16.70;8.30;;;;;;;-0.03;100.00;101072.65;104649;1296;22553;-76
2023/03/03 06:57:43;;;;;;;17.90;8.30;;;;;;;0.01;100.00;101069.33;104857;1296;22610;-77
2023/03/03 07:00:19;;;;;;;17.20;7.80;;;;;;;0.03;100.00;101073.96;104963;1299;22578;-77
2023/03/03 07:03:14;;;;;;;19.00;7.70;;;;;;;0.08;100.00;101068.23;104169;1298;1003333;-76
2023/03/03 07:05:44;;;;;;;15.70;7.00;;;;;;;0.12;100.00;101067.28;104585;1305;25463;-75
2023/03/03 07:08:18;;;;;;;15.80;7.20;;;;;;;0.15;100.00;101069.27;104771;1305;22510;-75
2023/03/03 07:10:54;;;;;;;16.20;7.70;;;;;;;0.22;100.00;101068.40;104587;1305;26847;-75
2023/03/03 07:13:27;;;;;;;16.90;7.40;;;;;;;0.26;100.00;101070.30;104642;1305;26099;-75
2023/03/03 07:15:58;;;;;;;18.70;8.30;;;;;;;0.29;100.00;101068.05;103946;1301;1003037;-76
2023/03/03 07:18:56;;;;;;;20.30;9.80;;;;;;;0.33;100.00;101075.28;104730;1305;25459;-76
2023/03/03 07:21:35;;;;;;;18.90;8.40;;;;;;;0.34;100.00;101063.34;103898;1298;1003976;-75
2023/03/03 07:24:25;;;;;;;24.70;11.30;;;;;;;0.35;100.00;101067.86;104860;1299;22644;-69
2023/03/03 07:27:01;;;;;;;16.70;7.90;;;;;;;0.39;100.00;101063.59;103865;1302;1003075;-71
2023/03/03 07:29:30;;;;;;;15.30;7.20;;;;;;;0.44;100.00;101070.45;103761;1305;1003305;-70
2023/03/03 07:31:59;;;;;;;18.70;8.40;;;;;;;0.48;100.00;101071.48;103775;1298;1003402;-70
2023/03/03 07:34:29;;;;;;;23.90;11.00;;;;;;;0.53;100.00;101068.70;104449;1302;25409;-71
2023/03/03 07:37:30;;;;;;;24.80;12.10;;;;;;;0.59;100.00;101066.30;104498;1305;25566;-69
2023/03/03 07:39:59;;;;;;;25.00;11.20;;;;;;;0.61;100.00;101061.37;104490;1301;25373;-70
2023/03/03 07:42:34;;;;;;;49.00;23.70;;;;;;;0.60;100.00;101070.70;103621;1302;1003529;-70
2023/03/03 07:45:29;;;;;;;35.20;16.70;;;;;;;0.56;100.00;101072.80;104463;1305;22555;-73
2023/03/03 07:48:23;;;;;;;24.00;12.40;;;;;;;0.56;100.00;101065.70;104458;1304;26560;-69
2023/03/03 07:50:52;;;;;;;21.50;11.00;;;;;;;0.52;100.00;101063.61;104484;1305;25885;-70
2023/03/03 07:53:25;;;;;;;25.80;11.50;;;;;;;0.50;100.00;101066.95;104568;1305;25626;-70
2023/03/03 07:55:53;;;;;;;20.90;10.30;;;;;;;0.52;100.00;101070.16;104402;1305;24267;-68
2023/03/03 07:58:26;;;;;;;19.10;9.50;;;;;;;0.56;100.00;101070.88;104670;1305;25297;-72
2023/03/03 08:01:14;;;;;;;;;;;;;;;0.63;100.00;101071.93;104521;1300;25442;-68
2023/03/03 08:03:44;;;;;;;16.40;7.50;;;;;;;0.67;100.00;101068.69;104649;1297;25410;-69
2023/03/03 08:06:22;;;;;;;17.80;7.50;;;;;;;0.65;100.00;101071.80;104458;1301;25387;-67
2023/03/03 08:08:51;;;;;;;18.50;8.10;;;;;;;0.72;100.00;101064.36;103805;1299;1002969;-68
2023/03/03 08:11:20;;;;;;;26.50;10.00;;;;;;;0.76;100.00;101067.85;104578;1298;22566;-70
2023/03/03 08:13:49;;;;;;;26.40;10.60;;;;;;;0.76;100.00;101070.84;104550;1299;25332;-68
2023/03/03 08:16:34;;;;;;;22.90;9.10;;;;;;;0.81;100.00;101066.17;104633;1305;23289;-71
2023/03/03 08:19:04;;;;;;;25.30;9.40;;;;;;;0.86;100.00;101061.63;104794;1297;23304;-66
2023/03/03 08:21:33;;;;;;;19.00;8.70;;;;;;;0.96;100.00;101059.16;104600;1298;25589;-78
2023/03/03 08:24:06;;;;;;;22.10;10.30;;;;;;;1.04;100.00;101056.92;104313;1304;25533;-77
2023/03/03 08:26:34;;;;;;;30.90;12.30;;;;;;;1.07;100.00;101061.72;103997;1298;1002812;-75
2023/03/03 08:29:03;;;;;;;20.70;8.20;;;;;;;1.11;100.00;101053.89;104619;1304;25253;-72
2023/03/03 08:31:31;;;;;;;23.50;9.30;;;;;;;1.14;100.00;101052.45;104534;1302;23908;-70
2023/03/03 08:34:08;;;;;;;20.80;9.30;;;;;;;1.20;100.00;101053.35;104506;1298;24282;-68
2023/03/03 08:36:41;;;;;;;25.30;10.00;;;;;;;1.27;100.00;101050.67;104692;1299;22574;-76
2023/03/03 08:39:10;;;;;;;21.70;9.90;;;;;;;1.34;100.00;101046.19;104854;1298;25395;-77
2023/03/03 08:41:42;;;;;;;19.80;8.90;;;;;;;1.45;100.00;101047.52;104285;1299;24463;-70
2023/03/03 08:44:11;;;;;;;18.60;8.00;;;;;;;1.55;100.00;101047.16;104549;1301;25335;-68
2023/03/03 08:46:40;;;;;;;18.50;7.70;;;;;;;1.60;100.00;101042.93;104509;1302;25412;-70
2023/03/03 08:49:12;;;;;;;19.50;8.50;;;;;;;1.65;100.00;101044.07;104522;1299;24390;-70
2023/03/03 08:51:42;;;;;;;30.10;15.00;;;;;;;1.74;100.00;101041.45;104565;1299;25402;-77
2023/03/03 08:54:11;;;;;;;22.40;10.00;;;;;;;1.80;100.00;101045.48;103906;1294;1002726;-76
2023/03/03 08:56:40;;;;;;;21.20;9.90;;;;;;;1.84;100.00;101044.92;104626;1298;26548;-74
2023/03/03 08:59:11;;;;;;;17.80;8.10;;;;;;;1.84;100.00;101041.17;104588;1297;23827;-75
2023/03/03 09:01:43;;;;;;;19.00;9.20;;;;;;;1.86;100.00;101038.55;104053;1302;22553;-71
2023/03/03 09:04:12;;;;;;;24.50;9.10;;;;;;;1.92;100.00;101036.09;103787;1297;1003774;-69
2023/03/03 09:06:42;;;;;;;20.00;9.50;;;;;;;1.94;100.00;101031.90;104617;1305;24345;-70
2023/03/03 09:09:12;;;;;;;19.60;8.90;;;;;;;1.94;100.00;101028.85;104462;1298;25603;-68
2023/03/03 09:11:58;;;;;;;25.40;8.00;;;;;;;2.02;100.00;101027.49;104438;1302;26634;-70
2023/03/03 09:14:29;;;;;;;18.90;8.40;;;;;;;2.12;100.00;101024.97;104137;1299;25523;-68
2023/03/03 09:16:58;;;;;;;19.20;9.00;;;;;;;2.23;100.00;101022.15;104547;1297;22547;-70
2023/03/03 09:19:32;;;;;;;15.60;7.40;;;;;;;2.35;100.00;101015.55;104593;1298;22810;-67
2023/03/03 09:22:27;;;;;;;18.60;8.60;;;;;;;2.45;100.00;101008.34;104678;1299;25323;-67
2023/03/03 09:24:59;;;;;;;22.50;9.20;;;;;;;2.58;100.00;101009.30;104345;1298;22599;-67
2023/03/03 09:27:29;;;;;;;23.30;9.70;;;;;;;2.64;100.00;101009.44;104307;1301;25509;-66
2023/03/03 09:30:19;;;;;;;17.20;7.80;;;;;;;2.66;100.00;101010.39;104549;1298;22681;-66
2023/03/03 09:32:48;;;;;;;26.80;9.90;;;;;;;2.69;100.00;101007.05;104660;1298;26722;-73
2023/03/03 09:35:36;;;;;;;23.90;10.60;;;;;;;2.66;100.00;101001.48;104593;1299;23358;-77
2023/03/03 09:38:26;;;;;;;22.70;9.90;;;;;;;2.64;100.00;100997.17;104630;1299;25335;-77
2023/03/03 09:41:18;;;;;;;21.50;9.70;;;;;;;2.60;100.00;100989.09;104432;1303;22562;-77
2023/03/03 09:44:32;;;;;;;25.10;10.60;;;;;;;2.58;100.00;100981.76;103729;1305;1003461;-77
2023/03/03 09:47:22;;;;;;;23.10;10.30;;;;;;;2.48;100.00;100974.67;103618;1302;1003045;-71
2023/03/03 09:50:09;;;;;;;20.60;8.60;;;;;;;2.39;100.00;100970.60;103762;1299;1003449;-69
2023/03/03 09:52:38;;;;;;;25.60;9.90;;;;;;;2.33;100.00;100966.20;104533;1298;25460;-68
2023/03/03 09:55:32;;;;;;;27.10;12.20;;;;;;;2.33;100.00;100962.80;104477;1299;24307;-68
2023/03/03 09:59:15;;;;;;;25.30;10.00;;;;;;;2.34;100.00;100958.52;104528;1298;25294;-67
2023/03/03 10:01:53;;;;;;;19.00;8.90;;;;;;;2.38;100.00;100953.62;103809;1305;25361;-68
2023/03/03 10:04:30;;;;;;;19.50;8.20;;;;;;;2.40;100.00;100946.02;103901;1304;25319;-68
2023/03/03 10:07:21;;;;;;;15.60;7.50;;;;;;;2.43;100.00;100941.86;104411;1299;25450;-71
2023/03/03 10:09:49;;;;;;;21.00;10.00;;;;;;;2.40;100.00;100938.71;103981;1302;1003011;-77
2023/03/03 10:12:47;;;;;;;24.90;11.50;;;;;;;2.38;100.00;100933.28;103868;1299;1003844;-76
2023/03/03 10:15:29;;;;;;;20.60;9.60;;;;;;;2.40;100.00;100927.16;104615;1298;25305;-76
2023/03/03 10:18:16;;;;;;;17.70;8.70;;;;;;;2.39;100.00;100921.17;104973;1306;26009;-76
2023/03/03 10:20:54;;;;;;;16.10;7.70;;;;;;;2.40;100.00;100912.19;105433;1306;22576;-76
2023/03/03 10:23:44;;;;;;;16.90;7.80;;;;;;;2.40;100.00;100904.52;104979;1306;24422;-77
2023/03/03 10:26:36;;;;;;;19.40;8.70;;;;;;;2.50;100.00;100895.88;104762;1306;26629;-77
2023/03/03 10:29:32;;;;;;;31.70;9.10;;;;;;;2.59;100.00;100892.27;105184;1306;22575;-76
2023/03/03 10:32:01;;;;;;;17.90;8.70;;;;;;;2.71;100.00;100888.48;104737;1306;25474;-75
2023/03/03 10:34:58;;;;;;;20.60;8.20;;;;;;;2.79;100.00;100880.51;104598;1306;22497;-77
2023/03/03 10:37:51;;;;;;;21.10;8.90;;;;;;;2.75;100.00;100890.91;104553;1306;26558;-76
2023/03/03 10:40:27;;;;;;;19.80;7.90;;;;;;;2.70;100.00;100879.81;103892;1306;1003321;-78
2023/03/03 10:43:06;;;;;;;22.70;10.50;;;;;;;2.70;100.00;100873.95;103947;1306;1003285;-77
2023/03/03 10:45:38;;;;;;;21.20;9.30;;;;;;;2.74;100.00;100862.67;104631;1306;25479;-79
2023/03/03 10:48:25;;;;;;;20.60;9.00;;;;;;;2.74;100.00;100855.91;104775;1304;22832;-77
2023/03/03 10:51:15;;;;;;;17.60;7.90;;;;;;;2.71;100.00;100847.89;104799;1304;22982;-77
2023/03/03 10:53:59;;;;;;;15.30;7.40;;;;;;;2.75;100.00;100840.73;105116;1304;23203;-77
2023/03/03 10:56:39;;;;;;;17.60;6.80;;;;;;;2.77;100.00;100835.02;104974;1304;23184;-75
2023/03/03 10:59:45;;;;;;;20.70;8.20;;;;;;;2.81;100.00;100831.54;105071;1304;22556;-71
2023/03/03 11:02:31;;;;;;;24.30;10.10;;;;;;;2.83;100.00;100826.66;105201;1304;25278;-70
2023/03/03 11:05:21;;;;;;;20.10;8.40;;;;;;;2.82;100.00;100823.45;105174;1304;25524;-69
2023/03/03 11:08:22;;;;;;;22.50;9.50;;;;;;;2.83;100.00;100816.47;104761;1304;23137;-66
2023/03/03 11:10:59;;;;;;;16.40;8.30;;;;;;;2.83;100.00;100815.78;104672;1299;25396;-69
2023/03/03 11:13:35;;;;;;;18.60;8.40;;;;;;;2.85;100.00;100812.09;104725;1299;22584;-68
2023/03/03 11:16:05;;;;;;;16.60;7.70;;;;;;;2.82;100.00;100804.95;104555;1302;25479;-69
2023/03/03 11:18:44;;;;;;;16.40;7.40;;;;;;;2.83;100.00;100797.77;104761;1299;22979;-70
2023/03/03 11:21:22;;;;;;;19.80;8.10;;;;;;;2.80;100.00;100798.85;103867;1302;1015296;-69
2023/03/03 11:23:54;;;;;;;17.40;8.10;;;;;;;2.82;100.00;100788.45;104613;1302;22575;-78
2023/03/03 11:26:52;;;;;;;18.70;8.30;;;;;;;2.82;100.00;100787.86;103988;1302;1002878;-69
2023/03/03 11:29:58;;;;;;;15.60;7.60;;;;;;;2.82;100.00;100787.00;103851;1304;1003368;-71
2023/03/03 11:32:33;;;;;;;16.10;7.80;;;;;;;2.81;100.00;100784.75;103700;1304;1003006;-70
2023/03/03 11:35:14;;;;;;;17.30;8.00;;;;;;;2.81;100.00;100770.68;104606;1304;26541;-70
2023/03/03 11:38:02;;;;;;;28.50;10.80;;;;;;;2.79;100.00;100772.07;104531;1305;25377;-69
2023/03/03 11:40:41;;;;;;;21.80;9.00;;;;;;;2.78;100.00;100772.29;103877;1298;1003625;-70
2023/03/03 11:43:46;;;;;;;25.10;9.10;;;;;;;2.82;100.00;100761.34;104576;1302;25388;-70